This is the latest recevied weather packets stored in our database for station/object N1KM-15. If no packets are shown the sender has not sent any weather packets the latest 10 day(s).
| Time | Temp. | Humidity | Pressure | Rain* | Wind** | Luminosity | Snow |
|---|---|---|---|---|---|---|---|
| 1777754700 | 10° C | 87% | 1008.6 hPa | 0 mm | - | - | - |
| 1777753800 | 10° C | 87% | 1008.6 hPa | 0 mm | - | - | - |
| 1777752900 | 10° C | 86% | 1008.7 hPa | 0 mm | - | - | - |
| 1777752000 | 10° C | 87% | 1008.9 hPa | 0 mm | - | - | - |
| 1777751100 | 10° C | 87% | 1009.1 hPa | 0 mm | - | - | - |
| 1777750200 | 10.56° C | 86% | 1009.2 hPa | 0 mm | - | - | - |
| 1777749300 | 11.11° C | 85% | 1009.3 hPa | 0 mm | - | - | - |
| 1777748400 | 10.56° C | 84% | 1009.4 hPa | 0 mm | - | - | - |
| 1777747500 | 10.56° C | 83% | 1009.4 hPa | 0 mm | - | - | - |
| 1777746600 | 10.56° C | 82% | 1009.7 hPa | 0 mm | - | - | - |
| 1777745700 | 11.11° C | 79% | 1009.7 hPa | 0 mm | - | - | - |
| 1777744800 | 11.11° C | 77% | 1009.8 hPa | 0 mm | - | - | - |
| 1777743900 | 11.11° C | 79% | 1009.9 hPa | 0 mm | - | - | - |
| 1777743000 | 11.11° C | 80% | 1009.9 hPa | 0 mm | - | - | - |
| 1777742100 | 11.11° C | 80% | 1009.6 hPa | 0 mm | - | - | - |
| 1777741200 | 11.11° C | 81% | 1009.7 hPa | 0 mm | - | - | - |
| 1777740300 | 11.11° C | 81% | 1010.1 hPa | 0 mm | - | - | - |
| 1777739400 | 11.67° C | 79% | 1009.9 hPa | 0 mm | - | - | - |
| 1777738500 | 11.67° C | 78% | 1009.5 hPa | 0 mm | - | - | - |
| 1777737600 | 12.22° C | 78% | 1010.1 hPa | 0 mm | - | - | - |
| 1777736700 | 11.67° C | 78% | 1009.2 hPa | 0 mm | - | - | - |
| 1777735800 | 11.11° C | 80% | 1009.7 hPa | 0 mm | - | - | - |
| 1777734900 | 12.22° C | 78% | 1010.9 hPa | 0 mm | - | - | - |
| 1777734000 | 11.67° C | 77% | 1009.5 hPa | 0 mm | - | - | - |
| 1777733100 | 11.67° C | 79% | 1010.3 hPa | 0 mm | - | - | - |
* Rain since midnight (hover to see other rain measurements)
** Current wind speed in m/s (hover to see current wind gust speed)